createdAt,value
2022-10-06T00:01:32.711Z,2.80
2022-10-06T00:06:31.086Z,52.30
2022-10-06T00:08:59.412Z,83.40
2022-10-06T00:11:28.201Z,99.90
2022-10-06T00:13:56.380Z,99.90
2022-10-06T00:16:24.639Z,99.90
2022-10-06T00:18:52.845Z,99.90
2022-10-06T00:21:21.151Z,99.90
2022-10-06T00:23:50.713Z,99.90
2022-10-06T00:26:18.974Z,99.90
2022-10-06T00:28:48.568Z,99.90
2022-10-06T00:31:19.587Z,99.90
2022-10-06T00:33:49.915Z,99.90
2022-10-06T00:36:18.183Z,99.90
2022-10-06T00:38:46.490Z,99.90
2022-10-06T00:41:18.978Z,99.90
2022-10-06T00:43:52.057Z,99.90
2022-10-06T00:46:28.530Z,99.90
2022-10-06T00:49:02.020Z,99.90
2022-10-06T00:51:32.365Z,99.90
2022-10-06T00:54:01.741Z,99.90
2022-10-06T00:56:32.276Z,99.90
2022-10-06T00:59:00.574Z,99.90
2022-10-06T01:01:31.842Z,99.90
2022-10-06T01:04:07.373Z,99.90
2022-10-06T01:06:47.320Z,99.90
2022-10-06T01:09:18.772Z,99.90
2022-10-06T01:11:51.297Z,99.90
2022-10-06T01:14:21.100Z,99.90
2022-10-06T01:16:57.019Z,99.90
2022-10-06T01:19:43.731Z,99.90
2022-10-06T01:22:15.600Z,99.90
2022-10-06T01:24:50.617Z,99.90
2022-10-06T01:27:19.755Z,99.90
2022-10-06T01:29:51.328Z,99.90
2022-10-06T01:32:19.821Z,99.90
2022-10-06T01:34:48.099Z,99.90
2022-10-06T01:37:16.962Z,99.90
2022-10-06T01:39:46.543Z,99.90
2022-10-06T01:42:14.765Z,99.90
2022-10-06T01:44:42.930Z,99.90
2022-10-06T01:47:11.157Z,99.90
2022-10-06T01:49:39.427Z,99.90
2022-10-06T01:52:08.187Z,99.90
2022-10-06T01:54:36.903Z,99.90
2022-10-06T01:57:08.656Z,99.90
2022-10-06T01:59:36.914Z,99.90
2022-10-06T02:02:05.622Z,99.90
2022-10-06T02:04:33.916Z,99.90
2022-10-06T02:07:02.168Z,99.90
2022-10-06T02:09:30.654Z,99.90
2022-10-06T02:11:59.641Z,99.90
2022-10-06T02:14:32.641Z,1.00
2022-10-06T02:17:00.910Z,1.00
2022-10-06T02:19:29.135Z,1.00
2022-10-06T02:21:59.715Z,1.00
2022-10-06T02:24:28.206Z,1.00
2022-10-06T02:26:56.407Z,1.00
2022-10-06T02:29:24.901Z,1.00
2022-10-06T02:31:55.708Z,1.00
2022-10-06T02:34:24.213Z,1.00
2022-10-06T02:36:54.030Z,1.00
2022-10-06T02:39:22.476Z,1.00
2022-10-06T02:41:50.791Z,1.00
2022-10-06T02:46:50.141Z,1.00
2022-10-06T02:49:20.568Z,1.00
2022-10-06T02:51:49.429Z,1.00
2022-10-06T02:54:17.686Z,1.00
2022-10-06T02:56:46.528Z,1.00
2022-10-06T02:59:15.423Z,1.00
2022-10-06T03:01:44.511Z,1.00
2022-10-06T03:04:17.341Z,1.00
2022-10-06T03:06:46.925Z,1.00
2022-10-06T03:09:20.781Z,1.00
2022-10-06T03:11:49.321Z,1.00
2022-10-06T03:14:23.527Z,1.00
2022-10-06T03:16:52.598Z,1.00
2022-10-06T03:19:24.999Z,1.00
2022-10-06T03:21:55.362Z,1.00
2022-10-06T03:24:29.737Z,1.00
2022-10-06T03:27:00.336Z,1.00
2022-10-06T03:29:29.133Z,1.00
2022-10-06T03:31:58.610Z,1.00
2022-10-06T03:34:27.368Z,1.00
2022-10-06T03:36:59.059Z,1.00
2022-10-06T03:41:57.134Z,1.00
2022-10-06T03:44:25.366Z,1.00
2022-10-06T03:46:53.823Z,1.00
2022-10-06T03:49:22.090Z,1.00
2022-10-06T03:51:50.371Z,1.00
2022-10-06T03:54:26.105Z,1.00
2022-10-06T03:56:55.464Z,1.00
2022-10-06T03:59:23.697Z,1.00
2022-10-06T04:01:56.054Z,1.00
2022-10-06T04:07:09.695Z,1.00
2022-10-06T04:09:39.290Z,1.00
2022-10-06T04:12:07.919Z,1.00
2022-10-06T04:17:08.553Z,1.00
2022-10-06T04:22:07.412Z,1.00
2022-10-06T04:27:23.814Z,1.00
2022-10-06T04:30:06.179Z,1.00
2022-10-06T04:32:35.274Z,1.00
2022-10-06T04:35:03.798Z,1.00
2022-10-06T04:37:32.612Z,1.00
2022-10-06T04:40:02.956Z,1.00
2022-10-06T04:42:35.218Z,1.00
2022-10-06T04:45:08.285Z,1.00
2022-10-06T04:50:07.847Z,1.00
2022-10-06T04:55:07.499Z,1.00
2022-10-06T04:57:36.525Z,1.00
2022-10-06T05:00:25.154Z,1.00
2022-10-06T05:02:55.446Z,1.00
2022-10-06T05:05:24.006Z,1.00
2022-10-06T05:10:23.483Z,1.00
2022-10-06T05:17:50.205Z,1.00
2022-10-06T05:20:22.764Z,1.00
2022-10-06T05:22:51.588Z,1.00
2022-10-06T05:25:20.566Z,1.00
2022-10-06T05:27:50.520Z,1.00
2022-10-06T05:30:18.888Z,1.00
2022-10-06T05:32:50.360Z,1.00
2022-10-06T05:35:19.394Z,99.90
2022-10-06T05:37:47.788Z,1.00
2022-10-06T05:40:16.439Z,1.00
2022-10-06T05:42:44.824Z,1.00
2022-10-06T05:45:14.657Z,99.90
2022-10-06T05:47:43.269Z,1.00
2022-10-06T05:50:11.526Z,1.00
2022-10-06T05:52:40.471Z,1.00
2022-10-06T05:55:10.220Z,1.00
2022-10-06T06:00:09.182Z,1.00
2022-10-06T06:02:42.709Z,1.00
2022-10-06T06:07:41.726Z,1.00
2022-10-06T06:10:10.520Z,1.00
2022-10-06T06:15:43.319Z,1.00
2022-10-06T06:18:13.980Z,1.00
2022-10-06T06:23:10.938Z,1.00
2022-10-06T06:25:39.210Z,1.00
2022-10-06T06:30:38.543Z,1.00
2022-10-06T06:33:06.781Z,1.00
2022-10-06T06:38:11.767Z,1.00
2022-10-06T06:40:42.153Z,1.00
2022-10-06T06:46:04.296Z,99.90
2022-10-06T06:48:49.915Z,99.90
2022-10-06T06:51:23.077Z,99.90
2022-10-06T06:53:52.534Z,99.90
2022-10-06T06:56:22.367Z,99.90
2022-10-06T06:58:51.580Z,99.90
2022-10-06T07:03:58.815Z,99.90
2022-10-06T07:06:33.153Z,99.90
2022-10-06T07:11:35.247Z,99.90
2022-10-06T07:14:08.877Z,99.90
2022-10-06T07:16:54.916Z,45.70
2022-10-06T07:19:52.737Z,99.90
2022-10-06T07:22:43.986Z,1.00
2022-10-06T07:25:26.042Z,31.20
2022-10-06T07:30:41.064Z,1.00
2022-10-06T07:33:15.827Z,1.00
2022-10-06T07:35:46.169Z,1.00
2022-10-06T07:38:18.679Z,1.00
2022-10-06T07:41:17.927Z,1.00
2022-10-06T07:43:46.865Z,1.00
2022-10-06T07:48:54.752Z,1.00
2022-10-06T07:51:27.197Z,1.00
2022-10-06T07:53:58.627Z,1.00
2022-10-06T07:56:31.950Z,1.00
2022-10-06T08:01:30.331Z,1.00
2022-10-06T08:03:58.716Z,1.00
2022-10-06T08:06:27.064Z,1.00
2022-10-06T08:11:26.325Z,1.00
2022-10-06T08:16:25.865Z,1.00
2022-10-06T08:18:55.927Z,1.00
2022-10-06T08:21:27.889Z,1.00
2022-10-06T08:23:57.128Z,1.00
2022-10-06T08:26:29.292Z,1.00
2022-10-06T08:29:03.442Z,1.00
2022-10-06T08:31:33.463Z,1.00
2022-10-06T08:34:02.112Z,1.00
2022-10-06T08:36:32.264Z,1.00
2022-10-06T08:39:01.369Z,1.00
2022-10-06T08:41:41.574Z,1.00
2022-10-06T08:44:24.476Z,1.00
2022-10-06T08:47:00.509Z,1.00
2022-10-06T08:49:40.933Z,1.00
2022-10-06T08:52:23.914Z,1.00
2022-10-06T08:55:04.654Z,1.00
2022-10-06T08:57:43.692Z,1.00
2022-10-06T09:00:18.155Z,1.00
2022-10-06T09:02:51.277Z,1.00
2022-10-06T09:05:25.468Z,1.00
2022-10-06T09:08:16.750Z,1.00
2022-10-06T09:10:54.876Z,1.00
2022-10-06T09:13:32.163Z,1.00
2022-10-06T09:16:07.571Z,1.00
2022-10-06T09:19:11.000Z,1.00
2022-10-06T09:21:39.739Z,1.00
2022-10-06T09:24:13.952Z,1.00
2022-10-06T09:26:45.537Z,1.00
2022-10-06T09:29:15.739Z,1.00
2022-10-06T09:31:51.139Z,1.00
2022-10-06T09:34:29.393Z,1.00
2022-10-06T09:37:03.785Z,1.00
2022-10-06T09:39:36.804Z,1.00
2022-10-06T09:42:13.376Z,1.00
2022-10-06T09:45:00.836Z,1.00
2022-10-06T09:47:45.108Z,1.00
2022-10-06T09:50:24.070Z,1.00
2022-10-06T09:53:16.724Z,1.00
2022-10-06T09:55:56.540Z,1.00
2022-10-06T09:58:31.381Z,1.00
2022-10-06T10:01:03.942Z,1.00
2022-10-06T10:04:02.356Z,1.00
2022-10-06T10:06:37.311Z,1.00
2022-10-06T10:09:27.086Z,1.00
2022-10-06T10:12:31.186Z,1.00
2022-10-06T10:15:06.151Z,1.00
2022-10-06T10:17:43.941Z,1.00
2022-10-06T10:20:34.283Z,1.00
2022-10-06T10:23:19.161Z,1.00
2022-10-06T10:26:07.958Z,1.00
2022-10-06T10:29:05.378Z,1.00
2022-10-06T10:31:49.040Z,1.00
2022-10-06T10:34:47.686Z,1.00
2022-10-06T10:37:21.878Z,1.00
2022-10-06T10:39:57.081Z,1.00
2022-10-06T10:42:32.161Z,1.00
2022-10-06T10:45:04.313Z,1.00
2022-10-06T10:47:38.600Z,1.00
2022-10-06T10:50:22.279Z,1.00
2022-10-06T10:52:55.359Z,1.00
2022-10-06T10:55:31.824Z,1.00
2022-10-06T10:58:09.063Z,1.00
2022-10-06T11:00:42.840Z,1.00
2022-10-06T11:03:11.852Z,1.00
2022-10-06T11:06:04.801Z,1.00
2022-10-06T11:08:44.411Z,1.00
2022-10-06T11:11:21.562Z,1.00
2022-10-06T11:13:54.654Z,1.00
2022-10-06T11:16:42.813Z,1.00
2022-10-06T11:19:22.859Z,1.00
2022-10-06T11:22:02.494Z,1.00
2022-10-06T11:24:40.787Z,1.00
2022-10-06T11:27:22.642Z,1.00
2022-10-06T11:30:03.860Z,1.00
2022-10-06T11:32:46.498Z,1.00
2022-10-06T11:35:21.751Z,1.00
2022-10-06T11:38:00.890Z,1.00
2022-10-06T11:40:49.896Z,1.00
2022-10-06T11:43:32.160Z,1.00
2022-10-06T11:46:08.922Z,1.00
2022-10-06T11:48:37.587Z,1.00
2022-10-06T11:51:30.367Z,1.00
2022-10-06T11:54:00.506Z,1.00
2022-10-06T11:56:46.816Z,1.00
2022-10-06T11:59:31.724Z,1.00
2022-10-06T12:02:02.373Z,1.00
2022-10-06T12:04:31.341Z,1.00
2022-10-06T12:07:04.531Z,1.00
2022-10-06T12:09:52.302Z,1.00
2022-10-06T12:13:21.297Z,1.00
2022-10-06T12:19:19.471Z,1.00
2022-10-06T12:22:01.224Z,1.00
2022-10-06T12:24:41.513Z,1.00
2022-10-06T12:27:50.273Z,1.00
2022-10-06T12:30:24.397Z,1.00
2022-10-06T12:32:58.199Z,1.00
2022-10-06T12:35:34.165Z,1.00
2022-10-06T12:38:06.172Z,1.00
2022-10-06T12:40:55.276Z,1.00
2022-10-06T12:43:59.234Z,1.00
2022-10-06T12:46:46.673Z,1.00
2022-10-06T12:49:44.280Z,1.00
2022-10-06T12:52:47.357Z,1.00
2022-10-06T12:55:36.413Z,1.00
2022-10-06T12:58:05.111Z,1.00
2022-10-06T13:00:39.672Z,1.00
2022-10-06T13:03:16.433Z,1.00
2022-10-06T13:05:52.001Z,1.00
2022-10-06T13:08:25.296Z,1.00
2022-10-06T13:11:13.270Z,1.00
2022-10-06T13:13:49.111Z,1.00
2022-10-06T13:16:26.577Z,1.00
2022-10-06T13:18:58.007Z,1.00
2022-10-06T13:21:27.574Z,1.00
2022-10-06T13:23:56.171Z,1.00
2022-10-06T13:26:29.411Z,1.00
2022-10-06T13:28:59.091Z,1.00
2022-10-06T13:31:31.586Z,1.00
2022-10-06T13:34:02.770Z,1.00
2022-10-06T13:36:34.733Z,1.00
2022-10-06T13:39:05.609Z,1.00
2022-10-06T13:41:38.020Z,1.00
2022-10-06T13:44:29.801Z,1.00
2022-10-06T13:47:02.492Z,1.00
2022-10-06T13:49:35.809Z,1.00
2022-10-06T13:52:16.218Z,1.00
2022-10-06T13:54:51.611Z,1.00
2022-10-06T13:57:43.142Z,1.00
2022-10-06T14:00:21.795Z,1.00
2022-10-06T14:02:55.259Z,1.00
2022-10-06T14:05:34.725Z,1.00
2022-10-06T14:08:15.371Z,1.00
2022-10-06T14:10:49.987Z,1.00
2022-10-06T14:13:21.752Z,1.00
2022-10-06T14:15:52.993Z,1.00
2022-10-06T14:18:26.538Z,1.00
2022-10-06T14:20:56.487Z,1.00
2022-10-06T14:23:43.682Z,1.00
2022-10-06T14:26:14.351Z,1.00
2022-10-06T14:28:47.826Z,1.00
2022-10-06T14:31:16.985Z,1.00
2022-10-06T14:33:48.609Z,1.00
2022-10-06T14:36:20.418Z,1.00
2022-10-06T14:38:51.086Z,1.00
2022-10-06T14:41:24.590Z,1.00
2022-10-06T14:43:56.275Z,1.00
2022-10-06T14:46:25.361Z,1.00
2022-10-06T14:48:55.792Z,1.00
2022-10-06T14:51:26.097Z,1.00
2022-10-06T14:53:56.492Z,1.00
2022-10-06T14:56:28.852Z,1.00
2022-10-06T14:58:57.841Z,1.00
2022-10-06T15:01:28.209Z,1.00
2022-10-06T15:04:00.497Z,1.00
2022-10-06T15:06:47.428Z,1.00
2022-10-06T15:09:15.919Z,1.00
2022-10-06T15:11:44.312Z,1.00
2022-10-06T15:16:43.732Z,1.00
2022-10-06T15:19:13.864Z,1.00
2022-10-06T15:21:45.297Z,1.00
2022-10-06T15:24:16.632Z,1.00
2022-10-06T15:27:03.320Z,1.00
2022-10-06T15:29:32.160Z,1.00
2022-10-06T15:32:00.415Z,1.00
2022-10-06T15:34:33.482Z,1.00
2022-10-06T15:37:02.790Z,1.00
2022-10-06T15:39:33.193Z,1.00
2022-10-06T15:42:01.967Z,1.00
2022-10-06T15:44:34.591Z,1.00
2022-10-06T15:47:05.118Z,1.00
2022-10-06T15:49:40.246Z,1.00
2022-10-06T15:52:11.688Z,1.00
2022-10-06T15:54:41.782Z,1.00
2022-10-06T15:57:16.338Z,1.00
2022-10-06T15:59:46.328Z,1.00
2022-10-06T16:02:17.145Z,1.00
2022-10-06T16:05:15.330Z,1.00
2022-10-06T16:10:13.109Z,1.00
2022-10-06T16:15:11.136Z,1.00
2022-10-06T16:20:11.611Z,1.00
2022-10-06T16:22:40.165Z,1.00
2022-10-06T16:25:09.642Z,1.00
2022-10-06T16:27:39.363Z,1.00
2022-10-06T16:30:09.633Z,1.00
2022-10-06T16:32:38.113Z,1.00
2022-10-06T16:35:10.478Z,1.00
2022-10-06T16:42:43.322Z,1.00
2022-10-06T16:45:14.534Z,1.00
2022-10-06T16:50:12.918Z,1.00
2022-10-06T16:52:41.422Z,1.00
2022-10-06T16:55:10.017Z,1.00
2022-10-06T16:57:38.233Z,1.00
2022-10-06T17:00:07.600Z,1.00
2022-10-06T17:05:06.021Z,1.00
2022-10-06T17:07:36.075Z,1.00
2022-10-06T17:10:21.241Z,1.00
2022-10-06T17:12:49.726Z,1.00
2022-10-06T17:20:16.902Z,1.00
2022-10-06T17:22:46.565Z,1.00
2022-10-06T17:25:15.229Z,1.00
2022-10-06T17:27:43.545Z,1.00
2022-10-06T17:30:14.818Z,1.00
2022-10-06T17:32:44.168Z,1.00
2022-10-06T17:35:12.335Z,1.00
2022-10-06T17:40:11.522Z,1.00
2022-10-06T17:42:41.474Z,1.00
2022-10-06T17:50:09.003Z,1.00
2022-10-06T17:52:39.032Z,1.00
2022-10-06T17:55:08.892Z,1.00
2022-10-06T18:00:09.845Z,1.00
2022-10-06T18:02:41.631Z,1.00
2022-10-06T18:05:10.457Z,1.00
2022-10-06T18:12:56.296Z,1.00
2022-10-06T18:17:53.339Z,1.00
2022-10-06T18:22:50.323Z,1.00
2022-10-06T18:27:53.012Z,1.00
2022-10-06T18:30:26.962Z,1.00
2022-10-06T18:36:15.765Z,1.00
2022-10-06T18:38:38.731Z,1.00
2022-10-06T18:43:37.357Z,1.00
2022-10-06T18:46:26.297Z,1.00
2022-10-06T18:51:31.297Z,1.00
2022-10-06T18:54:01.819Z,1.00
2022-10-06T18:56:33.979Z,1.00
2022-10-06T19:04:05.406Z,13.80
2022-10-06T19:09:05.472Z,60.00
2022-10-06T19:11:51.790Z,53.60
2022-10-06T19:14:22.342Z,66.80
2022-10-06T19:16:56.245Z,40.10
2022-10-06T19:21:59.391Z,1.00
2022-10-06T19:24:30.015Z,23.40
2022-10-06T19:32:00.444Z,47.40
2022-10-06T19:34:28.745Z,57.90
2022-10-06T19:39:30.591Z,1.00
2022-10-06T19:42:16.956Z,51.20
2022-10-06T19:44:45.603Z,18.70
2022-10-06T19:47:16.417Z,1.00
2022-10-06T19:49:45.250Z,51.50
2022-10-06T19:52:14.549Z,1.00
2022-10-06T19:54:42.872Z,66.00
2022-10-06T19:59:40.815Z,90.80
2022-10-06T20:02:10.194Z,94.90
2022-10-06T20:04:40.099Z,99.90
2022-10-06T20:07:09.996Z,8.20
2022-10-06T20:09:38.319Z,99.90
2022-10-06T20:14:36.292Z,99.90
2022-10-06T20:19:33.317Z,99.90
2022-10-06T20:22:02.922Z,99.90
2022-10-06T20:24:31.845Z,54.60
2022-10-06T20:29:29.559Z,99.90
2022-10-06T20:31:59.357Z,99.90
2022-10-06T20:34:31.917Z,99.90
2022-10-06T20:37:03.342Z,99.90
2022-10-06T20:39:51.728Z,99.90
2022-10-06T20:42:21.556Z,99.90
2022-10-06T20:44:50.044Z,99.90
2022-10-06T20:49:46.830Z,99.90
2022-10-06T20:52:16.350Z,99.90
2022-10-06T20:54:44.531Z,99.90
2022-10-06T20:57:13.043Z,99.90
2022-10-06T20:59:41.602Z,99.90
2022-10-06T21:02:11.583Z,99.90
2022-10-06T21:04:43.640Z,99.90
2022-10-06T21:07:12.284Z,99.90
2022-10-06T21:09:41.936Z,99.90
2022-10-06T21:12:10.318Z,99.90
2022-10-06T21:14:42.266Z,99.90
2022-10-06T21:17:10.661Z,99.90
2022-10-06T21:19:39.110Z,99.90
2022-10-06T21:22:07.498Z,99.90
2022-10-06T21:24:35.917Z,99.90
2022-10-06T21:27:05.782Z,99.90
2022-10-06T21:29:34.116Z,99.90
2022-10-06T21:32:02.539Z,99.90
2022-10-06T21:34:30.937Z,99.90
2022-10-06T21:36:59.335Z,99.90
2022-10-06T21:39:27.715Z,99.90
2022-10-06T21:41:56.279Z,99.90
2022-10-06T21:44:25.995Z,99.90
2022-10-06T21:46:56.652Z,99.90
2022-10-06T21:49:28.338Z,99.90
2022-10-06T21:51:58.465Z,99.90
2022-10-06T21:54:26.820Z,99.90
2022-10-06T21:56:55.148Z,99.90
2022-10-06T21:59:23.539Z,99.90
2022-10-06T22:01:53.395Z,99.90
2022-10-06T22:04:21.736Z,99.90
2022-10-06T22:06:50.824Z,99.90
2022-10-06T22:09:21.602Z,99.90
2022-10-06T22:11:50.816Z,99.90
2022-10-06T22:14:20.864Z,99.90
2022-10-06T22:16:49.391Z,99.90
2022-10-06T22:19:19.339Z,99.90
2022-10-06T22:21:49.581Z,99.90
2022-10-06T22:24:20.828Z,99.90
2022-10-06T22:26:50.350Z,99.90
2022-10-06T22:29:21.017Z,99.90
2022-10-06T22:31:50.172Z,99.90
2022-10-06T22:34:21.733Z,99.90
2022-10-06T22:36:50.267Z,99.90
2022-10-06T22:39:18.764Z,99.90
2022-10-06T22:41:47.097Z,99.90
2022-10-06T22:44:15.408Z,99.90
2022-10-06T22:46:43.759Z,99.90
2022-10-06T22:49:12.425Z,99.90
2022-10-06T22:51:42.190Z,99.90
2022-10-06T22:54:19.767Z,99.90
2022-10-06T22:56:48.089Z,99.90
2022-10-06T22:59:16.440Z,99.90
2022-10-06T23:01:44.761Z,99.90
2022-10-06T23:04:13.080Z,99.90
2022-10-06T23:06:42.792Z,99.90
2022-10-06T23:11:41.334Z,99.90
2022-10-06T23:14:17.572Z,99.90
2022-10-06T23:16:45.957Z,99.90
2022-10-06T23:19:14.517Z,99.90
2022-10-06T23:24:11.782Z,99.90
2022-10-06T23:26:40.145Z,99.90
2022-10-06T23:29:08.429Z,99.90
2022-10-06T23:31:38.177Z,99.90
2022-10-06T23:34:06.564Z,99.90
2022-10-06T23:36:34.937Z,99.90
2022-10-06T23:39:03.231Z,99.90
2022-10-06T23:41:31.719Z,99.90
2022-10-06T23:44:00.302Z,99.90
2022-10-06T23:46:28.655Z,99.90
2022-10-06T23:48:58.583Z,99.90
2022-10-06T23:51:27.260Z,99.90
2022-10-06T23:53:55.556Z,99.90
2022-10-06T23:56:24.010Z,99.90
